sensor_id;sensor_type;location;lat;lon;timestamp;temperature;humidity
7958;DHT22;4024;52.172;5.378;2022-10-16T00:01:25;15.30;99.90
7958;DHT22;4024;52.172;5.378;2022-10-16T00:03:51;15.20;99.90
7958;DHT22;4024;52.172;5.378;2022-10-16T00:06:19;15.20;99.90
7958;DHT22;4024;52.172;5.378;2022-10-16T00:08:46;15.20;99.90
7958;DHT22;4024;52.172;5.378;2022-10-16T00:11:15;15.20;99.90
7958;DHT22;4024;52.172;5.378;2022-10-16T00:13:43;15.20;99.90
7958;DHT22;4024;52.172;5.378;2022-10-16T00:16:10;15.20;99.90
7958;DHT22;4024;52.172;5.378;2022-10-16T00:18:36;15.30;99.90
7958;DHT22;4024;52.172;5.378;2022-10-16T00:21:11;15.20;99.90
7958;DHT22;4024;52.172;5.378;2022-10-16T00:23:38;15.30;99.90
7958;DHT22;4024;52.172;5.378;2022-10-16T00:26:06;15.20;99.90
7958;DHT22;4024;52.172;5.378;2022-10-16T00:28:33;15.20;99.90
7958;DHT22;4024;52.172;5.378;2022-10-16T00:30:59;15.20;99.90
7958;DHT22;4024;52.172;5.378;2022-10-16T00:33:27;15.20;99.90
7958;DHT22;4024;52.172;5.378;2022-10-16T00:35:53;15.20;99.90
7958;DHT22;4024;52.172;5.378;2022-10-16T00:38:18;15.20;99.90
7958;DHT22;4024;52.172;5.378;2022-10-16T00:40:44;15.20;99.90
7958;DHT22;4024;52.172;5.378;2022-10-16T00:43:32;15.20;99.90
7958;DHT22;4024;52.172;5.378;2022-10-16T00:45:58;15.20;99.90
7958;DHT22;4024;52.172;5.378;2022-10-16T00:48:24;15.20;99.90
7958;DHT22;4024;52.172;5.378;2022-10-16T00:50:50;15.20;99.90
7958;DHT22;4024;52.172;5.378;2022-10-16T00:53:17;15.20;99.90
7958;DHT22;4024;52.172;5.378;2022-10-16T00:55:43;15.20;99.90
7958;DHT22;4024;52.172;5.378;2022-10-16T00:58:09;15.20;99.90
7958;DHT22;4024;52.172;5.378;2022-10-16T01:00:35;15.20;99.90
7958;DHT22;4024;52.172;5.378;2022-10-16T01:03:02;15.20;99.90
7958;DHT22;4024;52.172;5.378;2022-10-16T01:05:37;15.20;99.90
7958;DHT22;4024;52.172;5.378;2022-10-16T01:08:15;15.20;99.90
7958;DHT22;4024;52.172;5.378;2022-10-16T01:10:54;15.30;99.90
7958;DHT22;4024;52.172;5.378;2022-10-16T01:13:31;15.30;99.90
7958;DHT22;4024;52.172;5.378;2022-10-16T01:16:06;15.30;99.90
7958;DHT22;4024;52.172;5.378;2022-10-16T01:18:43;15.30;99.90
7958;DHT22;4024;52.172;5.378;2022-10-16T01:21:14;15.40;99.90
7958;DHT22;4024;52.172;5.378;2022-10-16T01:26:40;15.40;99.90
7958;DHT22;4024;52.172;5.378;2022-10-16T01:31:41;15.40;99.90
7958;DHT22;4024;52.172;5.378;2022-10-16T01:34:16;15.40;99.90
7958;DHT22;4024;52.172;5.378;2022-10-16T01:37:12;15.50;99.90
7958;DHT22;4024;52.172;5.378;2022-10-16T01:39:39;15.50;99.90
7958;DHT22;4024;52.172;5.378;2022-10-16T01:42:17;15.50;99.90
7958;DHT22;4024;52.172;5.378;2022-10-16T01:44:45;15.50;99.90
7958;DHT22;4024;52.172;5.378;2022-10-16T01:47:13;15.50;99.90
7958;DHT22;4024;52.172;5.378;2022-10-16T01:49:40;15.50;99.90
7958;DHT22;4024;52.172;5.378;2022-10-16T01:52:09;15.50;99.90
7958;DHT22;4024;52.172;5.378;2022-10-16T01:54:39;15.50;99.90
7958;DHT22;4024;52.172;5.378;2022-10-16T01:57:07;15.50;99.90
7958;DHT22;4024;52.172;5.378;2022-10-16T01:59:35;15.50;99.90
7958;DHT22;4024;52.172;5.378;2022-10-16T02:02:07;15.60;99.90
7958;DHT22;4024;52.172;5.378;2022-10-16T02:04:42;15.60;99.90
7958;DHT22;4024;52.172;5.378;2022-10-16T02:07:08;15.50;99.90
7958;DHT22;4024;52.172;5.378;2022-10-16T02:09:35;15.60;99.90
7958;DHT22;4024;52.172;5.378;2022-10-16T02:12:06;15.60;99.90
7958;DHT22;4024;52.172;5.378;2022-10-16T02:14:34;15.60;99.90
7958;DHT22;4024;52.172;5.378;2022-10-16T02:17:11;15.60;99.90
7958;DHT22;4024;52.172;5.378;2022-10-16T02:19:36;15.60;99.90
7958;DHT22;4024;52.172;5.378;2022-10-16T02:22:04;15.60;99.90
7958;DHT22;4024;52.172;5.378;2022-10-16T02:24:45;15.60;99.90
7958;DHT22;4024;52.172;5.378;2022-10-16T02:27:38;15.50;99.90
7958;DHT22;4024;52.172;5.378;2022-10-16T02:32:34;15.60;99.90
7958;DHT22;4024;52.172;5.378;2022-10-16T02:35:02;15.50;99.90
7958;DHT22;4024;52.172;5.378;2022-10-16T02:37:28;15.50;99.90
7958;DHT22;4024;52.172;5.378;2022-10-16T02:39:56;15.50;99.90
7958;DHT22;4024;52.172;5.378;2022-10-16T02:42:34;15.50;99.90
7958;DHT22;4024;52.172;5.378;2022-10-16T02:45:00;15.50;99.90
7958;DHT22;4024;52.172;5.378;2022-10-16T02:47:26;15.40;99.90
7958;DHT22;4024;52.172;5.378;2022-10-16T02:49:52;15.40;99.90
7958;DHT22;4024;52.172;5.378;2022-10-16T02:52:18;15.30;99.90
7958;DHT22;4024;52.172;5.378;2022-10-16T02:54:43;15.40;99.90
7958;DHT22;4024;52.172;5.378;2022-10-16T02:57:09;15.40;99.90
7958;DHT22;4024;52.172;5.378;2022-10-16T02:59:35;15.30;99.90
7958;DHT22;4024;52.172;5.378;2022-10-16T03:02:00;15.30;99.90
7958;DHT22;4024;52.172;5.378;2022-10-16T03:04:26;15.30;99.90
7958;DHT22;4024;52.172;5.378;2022-10-16T03:06:51;15.30;99.90
7958;DHT22;4024;52.172;5.378;2022-10-16T03:09:17;15.30;99.90
7958;DHT22;4024;52.172;5.378;2022-10-16T03:11:42;15.30;99.90
7958;DHT22;4024;52.172;5.378;2022-10-16T03:14:08;15.30;99.90
7958;DHT22;4024;52.172;5.378;2022-10-16T03:16:34;15.30;99.90
7958;DHT22;4024;52.172;5.378;2022-10-16T03:18:59;15.30;99.90
7958;DHT22;4024;52.172;5.378;2022-10-16T03:21:25;15.30;99.90
7958;DHT22;4024;52.172;5.378;2022-10-16T03:23:50;15.30;99.90
7958;DHT22;4024;52.172;5.378;2022-10-16T03:26:16;15.30;99.90
7958;DHT22;4024;52.172;5.378;2022-10-16T03:28:42;15.30;99.90
7958;DHT22;4024;52.172;5.378;2022-10-16T03:31:07;15.30;99.90
7958;DHT22;4024;52.172;5.378;2022-10-16T03:33:33;15.20;99.90
7958;DHT22;4024;52.172;5.378;2022-10-16T03:35:59;15.20;99.90
7958;DHT22;4024;52.172;5.378;2022-10-16T03:38:25;15.30;99.90
7958;DHT22;4024;52.172;5.378;2022-10-16T03:40:51;15.20;99.90
7958;DHT22;4024;52.172;5.378;2022-10-16T03:43:16;15.20;99.90
7958;DHT22;4024;52.172;5.378;2022-10-16T03:45:42;15.10;99.90
7958;DHT22;4024;52.172;5.378;2022-10-16T03:48:07;15.10;99.90
7958;DHT22;4024;52.172;5.378;2022-10-16T03:50:33;15.10;99.90
7958;DHT22;4024;52.172;5.378;2022-10-16T03:52:58;15.10;99.90
7958;DHT22;4024;52.172;5.378;2022-10-16T03:55:24;15.10;99.90
7958;DHT22;4024;52.172;5.378;2022-10-16T03:57:50;15.00;99.90
7958;DHT22;4024;52.172;5.378;2022-10-16T04:00:15;15.00;99.90
7958;DHT22;4024;52.172;5.378;2022-10-16T04:02:41;15.00;99.90
7958;DHT22;4024;52.172;5.378;2022-10-16T04:05:07;15.00;99.90
7958;DHT22;4024;52.172;5.378;2022-10-16T04:07:33;15.00;99.90
7958;DHT22;4024;52.172;5.378;2022-10-16T04:09:58;15.00;99.90
7958;DHT22;4024;52.172;5.378;2022-10-16T04:12:25;15.00;99.90
7958;DHT22;4024;52.172;5.378;2022-10-16T04:14:50;14.90;99.90
7958;DHT22;4024;52.172;5.378;2022-10-16T04:17:16;14.90;99.90
7958;DHT22;4024;52.172;5.378;2022-10-16T04:19:41;14.90;99.90
7958;DHT22;4024;52.172;5.378;2022-10-16T04:22:07;14.90;99.90
7958;DHT22;4024;52.172;5.378;2022-10-16T04:24:33;14.90;99.90
7958;DHT22;4024;52.172;5.378;2022-10-16T04:26:58;14.90;99.90
7958;DHT22;4024;52.172;5.378;2022-10-16T04:29:24;14.90;99.90
7958;DHT22;4024;52.172;5.378;2022-10-16T04:31:49;14.90;99.90
7958;DHT22;4024;52.172;5.378;2022-10-16T04:34:15;14.90;99.90
7958;DHT22;4024;52.172;5.378;2022-10-16T04:36:40;15.00;99.90
7958;DHT22;4024;52.172;5.378;2022-10-16T04:39:06;14.90;99.90
7958;DHT22;4024;52.172;5.378;2022-10-16T04:41:32;15.00;99.90
7958;DHT22;4024;52.172;5.378;2022-10-16T04:43:57;14.90;99.90
7958;DHT22;4024;52.172;5.378;2022-10-16T04:46:23;14.90;99.90
7958;DHT22;4024;52.172;5.378;2022-10-16T04:48:48;14.90;99.90
7958;DHT22;4024;52.172;5.378;2022-10-16T04:51:14;14.90;99.90
7958;DHT22;4024;52.172;5.378;2022-10-16T04:53:41;14.90;99.90
7958;DHT22;4024;52.172;5.378;2022-10-16T04:56:07;14.90;99.90
7958;DHT22;4024;52.172;5.378;2022-10-16T04:58:32;14.90;99.90
7958;DHT22;4024;52.172;5.378;2022-10-16T05:00:58;14.90;99.90
7958;DHT22;4024;52.172;5.378;2022-10-16T05:03:24;14.90;99.90
7958;DHT22;4024;52.172;5.378;2022-10-16T05:05:49;14.90;99.90
7958;DHT22;4024;52.172;5.378;2022-10-16T05:08:15;14.90;99.90
7958;DHT22;4024;52.172;5.378;2022-10-16T05:10:43;14.90;99.90
7958;DHT22;4024;52.172;5.378;2022-10-16T05:13:08;14.80;99.90
7958;DHT22;4024;52.172;5.378;2022-10-16T05:15:34;14.80;99.90
7958;DHT22;4024;52.172;5.378;2022-10-16T05:18:00;14.80;99.90
7958;DHT22;4024;52.172;5.378;2022-10-16T05:20:26;14.80;99.90
7958;DHT22;4024;52.172;5.378;2022-10-16T05:22:51;14.80;99.90
7958;DHT22;4024;52.172;5.378;2022-10-16T05:25:17;14.80;99.90
7958;DHT22;4024;52.172;5.378;2022-10-16T05:27:43;14.80;99.90
7958;DHT22;4024;52.172;5.378;2022-10-16T05:30:09;14.80;99.90
7958;DHT22;4024;52.172;5.378;2022-10-16T05:32:34;14.80;99.90
7958;DHT22;4024;52.172;5.378;2022-10-16T05:35:00;14.70;99.90
7958;DHT22;4024;52.172;5.378;2022-10-16T05:37:27;14.70;99.90
7958;DHT22;4024;52.172;5.378;2022-10-16T05:39:52;14.80;99.90
7958;DHT22;4024;52.172;5.378;2022-10-16T05:42:18;14.80;99.90
7958;DHT22;4024;52.172;5.378;2022-10-16T05:44:44;14.80;99.90
7958;DHT22;4024;52.172;5.378;2022-10-16T05:47:09;14.80;99.90
7958;DHT22;4024;52.172;5.378;2022-10-16T05:49:37;14.80;99.90
7958;DHT22;4024;52.172;5.378;2022-10-16T05:52:03;14.80;99.90
7958;DHT22;4024;52.172;5.378;2022-10-16T05:54:28;14.70;99.90
7958;DHT22;4024;52.172;5.378;2022-10-16T05:56:54;14.80;99.90
7958;DHT22;4024;52.172;5.378;2022-10-16T05:59:19;14.80;99.90
7958;DHT22;4024;52.172;5.378;2022-10-16T06:01:45;14.80;99.90
7958;DHT22;4024;52.172;5.378;2022-10-16T06:04:11;14.90;99.90
7958;DHT22;4024;52.172;5.378;2022-10-16T06:06:37;14.80;99.90
7958;DHT22;4024;52.172;5.378;2022-10-16T06:09:03;14.80;99.90
7958;DHT22;4024;52.172;5.378;2022-10-16T06:11:31;14.90;99.90
7958;DHT22;4024;52.172;5.378;2022-10-16T06:13:59;14.90;99.90
7958;DHT22;4024;52.172;5.378;2022-10-16T06:16:27;14.90;99.90
7958;DHT22;4024;52.172;5.378;2022-10-16T06:18:58;15.00;99.90
7958;DHT22;4024;52.172;5.378;2022-10-16T06:21:28;15.00;99.90
7958;DHT22;4024;52.172;5.378;2022-10-16T06:23:54;14.90;99.90
7958;DHT22;4024;52.172;5.378;2022-10-16T06:26:24;15.00;99.90
7958;DHT22;4024;52.172;5.378;2022-10-16T06:28:50;15.00;99.90
7958;DHT22;4024;52.172;5.378;2022-10-16T06:31:16;15.00;99.90
7958;DHT22;4024;52.172;5.378;2022-10-16T06:33:42;15.00;99.90
7958;DHT22;4024;52.172;5.378;2022-10-16T06:36:11;15.00;99.90
7958;DHT22;4024;52.172;5.378;2022-10-16T06:38:37;15.00;99.90
7958;DHT22;4024;52.172;5.378;2022-10-16T06:41:04;15.00;99.90
7958;DHT22;4024;52.172;5.378;2022-10-16T06:43:30;15.00;99.90
7958;DHT22;4024;52.172;5.378;2022-10-16T06:46:04;15.00;99.90
7958;DHT22;4024;52.172;5.378;2022-10-16T06:48:30;15.00;99.90
7958;DHT22;4024;52.172;5.378;2022-10-16T06:51:05;15.00;99.90
7958;DHT22;4024;52.172;5.378;2022-10-16T06:53:33;15.00;99.90
7958;DHT22;4024;52.172;5.378;2022-10-16T06:56:29;15.00;99.90
7958;DHT22;4024;52.172;5.378;2022-10-16T06:58:56;15.00;99.90
7958;DHT22;4024;52.172;5.378;2022-10-16T07:01:23;15.00;99.90
7958;DHT22;4024;52.172;5.378;2022-10-16T07:03:49;15.10;99.90
7958;DHT22;4024;52.172;5.378;2022-10-16T07:06:17;15.10;99.90
7958;DHT22;4024;52.172;5.378;2022-10-16T07:08:45;15.10;99.90
7958;DHT22;4024;52.172;5.378;2022-10-16T07:11:18;15.10;99.90
7958;DHT22;4024;52.172;5.378;2022-10-16T07:13:45;15.10;99.90
7958;DHT22;4024;52.172;5.378;2022-10-16T07:16:17;15.10;99.90
7958;DHT22;4024;52.172;5.378;2022-10-16T07:18:43;15.20;99.90
7958;DHT22;4024;52.172;5.378;2022-10-16T07:21:16;15.20;99.90
7958;DHT22;4024;52.172;5.378;2022-10-16T07:23:43;15.20;99.90
7958;DHT22;4024;52.172;5.378;2022-10-16T07:26:09;15.20;99.90
7958;DHT22;4024;52.172;5.378;2022-10-16T07:28:35;15.20;99.90
7958;DHT22;4024;52.172;5.378;2022-10-16T07:31:06;15.30;99.90
7958;DHT22;4024;52.172;5.378;2022-10-16T07:33:34;15.30;99.90
7958;DHT22;4024;52.172;5.378;2022-10-16T07:36:00;15.30;99.90
7958;DHT22;4024;52.172;5.378;2022-10-16T07:38:26;15.30;99.90
7958;DHT22;4024;52.172;5.378;2022-10-16T07:41:03;15.30;99.90
7958;DHT22;4024;52.172;5.378;2022-10-16T07:43:29;15.40;99.90
7958;DHT22;4024;52.172;5.378;2022-10-16T07:45:55;15.30;99.90
7958;DHT22;4024;52.172;5.378;2022-10-16T07:48:22;15.40;99.90
7958;DHT22;4024;52.172;5.378;2022-10-16T07:50:49;15.40;99.90
7958;DHT22;4024;52.172;5.378;2022-10-16T07:53:14;15.30;99.90
7958;DHT22;4024;52.172;5.378;2022-10-16T07:55:40;15.40;99.90
7958;DHT22;4024;52.172;5.378;2022-10-16T07:58:06;15.40;99.90
7958;DHT22;4024;52.172;5.378;2022-10-16T08:00:32;15.30;99.90
7958;DHT22;4024;52.172;5.378;2022-10-16T08:02:58;15.30;99.90
7958;DHT22;4024;52.172;5.378;2022-10-16T08:05:28;15.30;99.90
7958;DHT22;4024;52.172;5.378;2022-10-16T08:07:54;15.30;99.90
7958;DHT22;4024;52.172;5.378;2022-10-16T08:10:22;15.20;99.90
7958;DHT22;4024;52.172;5.378;2022-10-16T08:12:48;15.20;99.90
7958;DHT22;4024;52.172;5.378;2022-10-16T08:15:14;15.30;99.90
7958;DHT22;4024;52.172;5.378;2022-10-16T08:17:39;15.30;99.90
7958;DHT22;4024;52.172;5.378;2022-10-16T08:20:05;15.30;99.90
7958;DHT22;4024;52.172;5.378;2022-10-16T08:22:31;15.30;99.90
7958;DHT22;4024;52.172;5.378;2022-10-16T08:24:57;15.30;99.90
7958;DHT22;4024;52.172;5.378;2022-10-16T08:27:22;15.40;99.90
7958;DHT22;4024;52.172;5.378;2022-10-16T08:29:49;15.40;99.90
7958;DHT22;4024;52.172;5.378;2022-10-16T08:32:15;15.40;99.90
7958;DHT22;4024;52.172;5.378;2022-10-16T08:34:40;15.40;99.90
7958;DHT22;4024;52.172;5.378;2022-10-16T08:37:06;15.40;99.90
7958;DHT22;4024;52.172;5.378;2022-10-16T08:39:33;15.50;99.90
7958;DHT22;4024;52.172;5.378;2022-10-16T08:42:21;15.50;99.90
7958;DHT22;4024;52.172;5.378;2022-10-16T08:45:14;15.50;99.90
7958;DHT22;4024;52.172;5.378;2022-10-16T08:50:24;15.60;99.90
7958;DHT22;4024;52.172;5.378;2022-10-16T08:52:51;15.60;99.90
7958;DHT22;4024;52.172;5.378;2022-10-16T08:55:52;15.60;99.90
7958;DHT22;4024;52.172;5.378;2022-10-16T08:58:20;15.70;99.90
7958;DHT22;4024;52.172;5.378;2022-10-16T09:00:53;15.70;99.90
7958;DHT22;4024;52.172;5.378;2022-10-16T09:16:37;16.00;99.90
7958;DHT22;4024;52.172;5.378;2022-10-16T09:21:40;16.00;99.90
7958;DHT22;4024;52.172;5.378;2022-10-16T09:24:18;16.10;99.90
7958;DHT22;4024;52.172;5.378;2022-10-16T09:26:46;16.10;99.90
7958;DHT22;4024;52.172;5.378;2022-10-16T09:29:16;16.20;99.90
7958;DHT22;4024;52.172;5.378;2022-10-16T09:31:43;16.30;99.90
7958;DHT22;4024;52.172;5.378;2022-10-16T09:34:30;16.40;99.90
7958;DHT22;4024;52.172;5.378;2022-10-16T09:36:57;16.40;99.90
7958;DHT22;4024;52.172;5.378;2022-10-16T09:39:24;16.60;99.90
7958;DHT22;4024;52.172;5.378;2022-10-16T09:41:50;16.60;99.90
7958;DHT22;4024;52.172;5.378;2022-10-16T09:44:26;16.70;99.90
7958;DHT22;4024;52.172;5.378;2022-10-16T09:47:12;16.80;99.90
7958;DHT22;4024;52.172;5.378;2022-10-16T09:49:51;16.80;99.90
7958;DHT22;4024;52.172;5.378;2022-10-16T09:52:18;16.90;99.90
7958;DHT22;4024;52.172;5.378;2022-10-16T09:54:52;16.90;99.90
7958;DHT22;4024;52.172;5.378;2022-10-16T09:57:20;16.90;99.90
7958;DHT22;4024;52.172;5.378;2022-10-16T09:59:51;17.00;99.90
7958;DHT22;4024;52.172;5.378;2022-10-16T10:02:20;17.00;99.90
7958;DHT22;4024;52.172;5.378;2022-10-16T10:04:53;17.10;99.90
7958;DHT22;4024;52.172;5.378;2022-10-16T10:07:27;17.10;99.90
7958;DHT22;4024;52.172;5.378;2022-10-16T10:09:55;17.10;99.90
7958;DHT22;4024;52.172;5.378;2022-10-16T10:12:25;17.20;99.90
7958;DHT22;4024;52.172;5.378;2022-10-16T10:15:02;17.30;99.90
7958;DHT22;4024;52.172;5.378;2022-10-16T10:17:29;17.40;99.90
7958;DHT22;4024;52.172;5.378;2022-10-16T10:20:00;17.50;99.90
7958;DHT22;4024;52.172;5.378;2022-10-16T10:22:46;17.60;99.90
7958;DHT22;4024;52.172;5.378;2022-10-16T10:27:52;17.60;99.90
7958;DHT22;4024;52.172;5.378;2022-10-16T10:30:37;17.80;99.90
7958;DHT22;4024;52.172;5.378;2022-10-16T10:38:53;17.90;99.90
7958;DHT22;4024;52.172;5.378;2022-10-16T10:47:05;17.90;99.90
7958;DHT22;4024;52.172;5.378;2022-10-16T10:50:02;18.00;99.90
7958;DHT22;4024;52.172;5.378;2022-10-16T10:52:41;18.00;99.90
7958;DHT22;4024;52.172;5.378;2022-10-16T11:08:36;18.00;99.90
7958;DHT22;4024;52.172;5.378;2022-10-16T11:11:10;18.00;99.90
7958;DHT22;4024;52.172;5.378;2022-10-16T11:16:43;18.10;99.90
7958;DHT22;4024;52.172;5.378;2022-10-16T11:19:34;18.00;99.90
7958;DHT22;4024;52.172;5.378;2022-10-16T11:22:22;18.10;99.90
7958;DHT22;4024;52.172;5.378;2022-10-16T11:27:37;18.10;99.90
7958;DHT22;4024;52.172;5.378;2022-10-16T11:30:30;18.10;99.90
7958;DHT22;4024;52.172;5.378;2022-10-16T11:33:08;18.00;99.90
7958;DHT22;4024;52.172;5.378;2022-10-16T11:35:44;18.00;99.90
7958;DHT22;4024;52.172;5.378;2022-10-16T11:40:42;18.00;99.90
7958;DHT22;4024;52.172;5.378;2022-10-16T11:43:17;17.90;99.90
7958;DHT22;4024;52.172;5.378;2022-10-16T11:45:54;18.00;99.90
7958;DHT22;4024;52.172;5.378;2022-10-16T11:48:43;18.00;99.90
7958;DHT22;4024;52.172;5.378;2022-10-16T11:51:38;18.10;99.90
7958;DHT22;4024;52.172;5.378;2022-10-16T11:54:27;18.00;99.90
7958;DHT22;4024;52.172;5.378;2022-10-16T11:57:02;18.10;99.90
7958;DHT22;4024;52.172;5.378;2022-10-16T11:59:52;18.10;99.90
7958;DHT22;4024;52.172;5.378;2022-10-16T12:02:26;18.10;99.90
7958;DHT22;4024;52.172;5.378;2022-10-16T12:07:43;18.20;99.90
7958;DHT22;4024;52.172;5.378;2022-10-16T12:10:24;18.30;99.90
7958;DHT22;4024;52.172;5.378;2022-10-16T12:12:51;18.20;99.90
7958;DHT22;4024;52.172;5.378;2022-10-16T12:15:24;18.20;99.90
7958;DHT22;4024;52.172;5.378;2022-10-16T12:17:50;18.30;99.90
7958;DHT22;4024;52.172;5.378;2022-10-16T12:22:50;18.20;99.90
7958;DHT22;4024;52.172;5.378;2022-10-16T12:25:26;18.20;99.90
7958;DHT22;4024;52.172;5.378;2022-10-16T12:28:26;18.20;99.90
7958;DHT22;4024;52.172;5.378;2022-10-16T12:30:56;18.30;99.90
7958;DHT22;4024;52.172;5.378;2022-10-16T12:33:33;18.20;99.90
7958;DHT22;4024;52.172;5.378;2022-10-16T12:36:03;18.20;99.90
7958;DHT22;4024;52.172;5.378;2022-10-16T12:38:37;18.20;99.90
7958;DHT22;4024;52.172;5.378;2022-10-16T12:41:08;18.30;99.90
7958;DHT22;4024;52.172;5.378;2022-10-16T12:43:47;18.30;99.90
7958;DHT22;4024;52.172;5.378;2022-10-16T12:48:40;18.30;99.90
7958;DHT22;4024;52.172;5.378;2022-10-16T12:51:12;18.40;99.90
7958;DHT22;4024;52.172;5.378;2022-10-16T12:53:38;18.50;99.90
7958;DHT22;4024;52.172;5.378;2022-10-16T12:58:48;18.50;99.90
7958;DHT22;4024;52.172;5.378;2022-10-16T13:04:22;18.50;99.90
7958;DHT22;4024;52.172;5.378;2022-10-16T13:07:29;18.60;99.90
7958;DHT22;4024;52.172;5.378;2022-10-16T13:21:38;18.60;99.90
7958;DHT22;4024;52.172;5.378;2022-10-16T13:24:29;18.70;99.90
7958;DHT22;4024;52.172;5.378;2022-10-16T13:27:07;18.70;99.90
7958;DHT22;4024;52.172;5.378;2022-10-16T13:29:35;18.70;99.90
7958;DHT22;4024;52.172;5.378;2022-10-16T13:32:06;18.70;99.90
7958;DHT22;4024;52.172;5.378;2022-10-16T13:34:32;18.70;99.90
7958;DHT22;4024;52.172;5.378;2022-10-16T13:36:58;18.80;99.90
7958;DHT22;4024;52.172;5.378;2022-10-16T13:42:14;18.80;99.90
7958;DHT22;4024;52.172;5.378;2022-10-16T13:44:44;18.80;99.90
7958;DHT22;4024;52.172;5.378;2022-10-16T13:47:25;18.80;99.90
7958;DHT22;4024;52.172;5.378;2022-10-16T13:50:08;18.80;99.90
7958;DHT22;4024;52.172;5.378;2022-10-16T13:52:35;18.90;99.90
7958;DHT22;4024;52.172;5.378;2022-10-16T13:55:01;18.90;99.90
7958;DHT22;4024;52.172;5.378;2022-10-16T13:57:27;18.90;99.90
7958;DHT22;4024;52.172;5.378;2022-10-16T13:59:53;18.90;99.90
7958;DHT22;4024;52.172;5.378;2022-10-16T14:02:35;18.90;99.90
7958;DHT22;4024;52.172;5.378;2022-10-16T14:05:03;18.90;99.90
7958;DHT22;4024;52.172;5.378;2022-10-16T14:07:31;19.00;99.90
7958;DHT22;4024;52.172;5.378;2022-10-16T14:10:06;19.00;99.90
7958;DHT22;4024;52.172;5.378;2022-10-16T14:12:33;19.00;99.90
7958;DHT22;4024;52.172;5.378;2022-10-16T14:15:00;19.10;99.90
7958;DHT22;4024;52.172;5.378;2022-10-16T14:17:28;19.00;99.90
7958;DHT22;4024;52.172;5.378;2022-10-16T14:19:57;19.00;99.90
7958;DHT22;4024;52.172;5.378;2022-10-16T14:22:40;19.10;99.90
7958;DHT22;4024;52.172;5.378;2022-10-16T14:25:27;19.10;99.90
7958;DHT22;4024;52.172;5.378;2022-10-16T14:28:18;19.10;99.90
7958;DHT22;4024;52.172;5.378;2022-10-16T14:31:00;19.10;99.90
7958;DHT22;4024;52.172;5.378;2022-10-16T14:36:05;19.10;99.90
7958;DHT22;4024;52.172;5.378;2022-10-16T14:38:31;19.10;99.90
7958;DHT22;4024;52.172;5.378;2022-10-16T14:40:58;19.20;99.90
7958;DHT22;4024;52.172;5.378;2022-10-16T14:43:41;19.10;99.90
7958;DHT22;4024;52.172;5.378;2022-10-16T14:46:20;19.10;99.90
7958;DHT22;4024;52.172;5.378;2022-10-16T14:48:48;19.10;99.90
7958;DHT22;4024;52.172;5.378;2022-10-16T14:51:18;19.10;99.90
7958;DHT22;4024;52.172;5.378;2022-10-16T14:53:44;19.10;99.90
7958;DHT22;4024;52.172;5.378;2022-10-16T14:56:19;19.10;99.90
7958;DHT22;4024;52.172;5.378;2022-10-16T14:58:45;19.10;99.90
7958;DHT22;4024;52.172;5.378;2022-10-16T15:01:11;19.10;99.90
7958;DHT22;4024;52.172;5.378;2022-10-16T15:03:38;19.10;99.90
7958;DHT22;4024;52.172;5.378;2022-10-16T15:06:04;19.10;99.90
7958;DHT22;4024;52.172;5.378;2022-10-16T15:08:34;19.00;99.90
7958;DHT22;4024;52.172;5.378;2022-10-16T15:11:00;19.00;99.90
7958;DHT22;4024;52.172;5.378;2022-10-16T15:13:26;19.00;99.90
7958;DHT22;4024;52.172;5.378;2022-10-16T15:15:53;19.00;99.90
7958;DHT22;4024;52.172;5.378;2022-10-16T15:18:18;19.10;99.90
7958;DHT22;4024;52.172;5.378;2022-10-16T15:20:49;19.00;99.90
7958;DHT22;4024;52.172;5.378;2022-10-16T15:23:20;19.00;99.90
7958;DHT22;4024;52.172;5.378;2022-10-16T15:25:51;19.00;99.90
7958;DHT22;4024;52.172;5.378;2022-10-16T15:28:17;19.00;99.90
7958;DHT22;4024;52.172;5.378;2022-10-16T15:30:44;18.90;99.90
7958;DHT22;4024;52.172;5.378;2022-10-16T15:33:23;18.90;99.90
7958;DHT22;4024;52.172;5.378;2022-10-16T15:35:51;18.90;99.90
7958;DHT22;4024;52.172;5.378;2022-10-16T15:38:17;18.90;99.90
7958;DHT22;4024;52.172;5.378;2022-10-16T15:40:43;18.80;99.90
7958;DHT22;4024;52.172;5.378;2022-10-16T15:43:09;18.80;99.90
7958;DHT22;4024;52.172;5.378;2022-10-16T15:45:35;18.80;99.90
7958;DHT22;4024;52.172;5.378;2022-10-16T15:48:01;18.70;99.90
7958;DHT22;4024;52.172;5.378;2022-10-16T15:50:28;18.70;99.90
7958;DHT22;4024;52.172;5.378;2022-10-16T15:52:53;18.60;99.90
7958;DHT22;4024;52.172;5.378;2022-10-16T15:55:19;18.60;99.90
7958;DHT22;4024;52.172;5.378;2022-10-16T15:57:45;18.60;99.90
7958;DHT22;4024;52.172;5.378;2022-10-16T16:00:14;18.60;99.90
7958;DHT22;4024;52.172;5.378;2022-10-16T16:02:41;18.50;99.90
7958;DHT22;4024;52.172;5.378;2022-10-16T16:05:08;18.50;99.90
7958;DHT22;4024;52.172;5.378;2022-10-16T16:07:38;18.50;99.90
7958;DHT22;4024;52.172;5.378;2022-10-16T16:10:07;18.50;99.90
7958;DHT22;4024;52.172;5.378;2022-10-16T16:12:33;18.40;99.90
7958;DHT22;4024;52.172;5.378;2022-10-16T16:14:59;18.40;99.90
7958;DHT22;4024;52.172;5.378;2022-10-16T16:17:25;18.40;99.90
7958;DHT22;4024;52.172;5.378;2022-10-16T16:19:51;18.30;99.90
7958;DHT22;4024;52.172;5.378;2022-10-16T16:22:17;18.40;99.90
7958;DHT22;4024;52.172;5.378;2022-10-16T16:24:43;18.30;99.90
7958;DHT22;4024;52.172;5.378;2022-10-16T16:27:09;18.30;99.90
7958;DHT22;4024;52.172;5.378;2022-10-16T16:29:35;18.30;99.90
7958;DHT22;4024;52.172;5.378;2022-10-16T16:32:01;18.30;99.90
7958;DHT22;4024;52.172;5.378;2022-10-16T16:34:27;18.20;99.90
7958;DHT22;4024;52.172;5.378;2022-10-16T16:36:54;18.20;99.90
7958;DHT22;4024;52.172;5.378;2022-10-16T16:39:21;18.20;99.90
7958;DHT22;4024;52.172;5.378;2022-10-16T16:41:47;18.10;99.90
7958;DHT22;4024;52.172;5.378;2022-10-16T16:44:14;18.10;99.90
7958;DHT22;4024;52.172;5.378;2022-10-16T16:46:41;18.10;99.90
7958;DHT22;4024;52.172;5.378;2022-10-16T16:49:09;18.00;99.90
7958;DHT22;4024;52.172;5.378;2022-10-16T16:51:36;18.00;99.90
7958;DHT22;4024;52.172;5.378;2022-10-16T16:54:01;18.00;99.90
7958;DHT22;4024;52.172;5.378;2022-10-16T16:56:27;18.00;99.90
7958;DHT22;4024;52.172;5.378;2022-10-16T16:58:55;17.90;99.90
7958;DHT22;4024;52.172;5.378;2022-10-16T17:01:23;17.90;99.90
7958;DHT22;4024;52.172;5.378;2022-10-16T17:03:50;17.80;99.90
7958;DHT22;4024;52.172;5.378;2022-10-16T17:06:18;17.80;99.90
7958;DHT22;4024;52.172;5.378;2022-10-16T17:08:44;17.70;99.90
7958;DHT22;4024;52.172;5.378;2022-10-16T17:11:21;17.70;99.90
7958;DHT22;4024;52.172;5.378;2022-10-16T17:13:47;17.60;99.90
7958;DHT22;4024;52.172;5.378;2022-10-16T17:16:13;17.60;99.90
7958;DHT22;4024;52.172;5.378;2022-10-16T17:18:39;17.50;99.90
7958;DHT22;4024;52.172;5.378;2022-10-16T17:21:07;17.50;99.90
7958;DHT22;4024;52.172;5.378;2022-10-16T17:23:34;17.50;99.90
7958;DHT22;4024;52.172;5.378;2022-10-16T17:26:12;17.50;99.90
7958;DHT22;4024;52.172;5.378;2022-10-16T17:28:38;17.50;99.90
7958;DHT22;4024;52.172;5.378;2022-10-16T17:31:16;17.40;99.90
7958;DHT22;4024;52.172;5.378;2022-10-16T17:33:43;17.40;99.90
7958;DHT22;4024;52.172;5.378;2022-10-16T17:36:09;17.40;99.90
7958;DHT22;4024;52.172;5.378;2022-10-16T17:38:36;17.40;99.90
7958;DHT22;4024;52.172;5.378;2022-10-16T17:41:18;17.40;99.90
7958;DHT22;4024;52.172;5.378;2022-10-16T17:43:44;17.30;99.90
7958;DHT22;4024;52.172;5.378;2022-10-16T17:46:10;17.40;99.90
7958;DHT22;4024;52.172;5.378;2022-10-16T17:48:42;17.40;99.90
7958;DHT22;4024;52.172;5.378;2022-10-16T17:51:11;17.30;99.90